Time;durP1;ratioP1;P1;durP2;ratioP2;P2;SDS_P1;SDS_P2;PMS_P1;PMS_P2;Temp;Humidity;BMP_temperature;BMP_pressure;BME280_temperature;BME280_humidity;BME280_pressure;Samples;Min_cycle;Max_cycle;Signal;HPM_P1;HPM_P2
2023/07/30 00:00:56;;;;;;;7.07;3.20;;;;;;;;;;6270464;22;20170;-89
2023/07/30 00:04:01;;;;;;;5.85;3.25;;;;;;;;;;6255100;23;20497;-90
2023/07/30 00:07:06;;;;;;;7.68;3.35;;;;;;;;;;6234581;23;20221;-90
2023/07/30 00:10:12;;;;;;;5.97;3.42;;;;;;;;;;6235239;23;20182;-90
2023/07/30 00:13:18;;;;;;;6.28;3.30;;;;;;;;;;6233998;23;20217;-91
2023/07/30 00:16:23;;;;;;;6.88;3.30;;;;;;;;;;6251773;23;20626;-88
2023/07/30 00:19:28;;;;;;;8.30;3.53;;;;;;;;;;6253006;23;20626;-89
2023/07/30 00:22:33;;;;;;;7.25;3.20;;;;;;;;;;6253627;23;20166;-89
2023/07/30 00:25:38;;;;;;;5.75;3.35;;;;;;;;;;6251684;23;20189;-91
2023/07/30 00:28:45;;;;;;;9.05;3.33;;;;;;;;;;6252002;23;20170;-89
2023/07/30 00:31:50;;;;;;;7.90;3.92;;;;;;;;;;6234238;23;20171;-89
2023/07/30 00:34:55;;;;;;;6.25;3.90;;;;;;;;;;6252881;23;20904;-90
2023/07/30 00:38:04;;;;;;;5.00;3.50;;;;;;;;;;6234238;23;20224;-88
2023/07/30 00:41:10;;;;;;;4.80;3.38;;;;;;;;;;6251251;23;20170;-89
2023/07/30 00:44:17;;;;;;;4.78;3.47;;;;;;;;;;6253377;23;20162;-89
2023/07/30 00:47:23;;;;;;;7.65;2.80;;;;;;;;;;6252036;22;20250;-90
2023/07/30 00:50:28;;;;;;;6.05;3.33;;;;;;;;;;6252519;23;20208;-91
2023/07/30 00:53:32;;;;;;;6.00;3.00;;;;;;;;;;6252907;23;20190;-89
2023/07/30 00:56:37;;;;;;;5.97;2.83;;;;;;;;;;6253153;23;20294;-88
2023/07/30 00:59:44;;;;;;;8.25;2.92;;;;;;;;;;6252249;23;20166;-90
2023/07/30 01:02:49;;;;;;;6.60;2.83;;;;;;;;;;6252992;23;20167;-90
2023/07/30 01:05:55;;;;;;;5.40;3.00;;;;;;;;;;6238132;23;20155;-90
2023/07/30 01:09:00;;;;;;;7.10;3.33;;;;;;;;;;6255816;22;20168;-88
2023/07/30 01:12:06;;;;;;;8.23;3.35;;;;;;;;;;6256503;22;20163;-90
2023/07/30 01:15:13;;;;;;;5.97;3.10;;;;;;;;;;6256769;22;20209;-90
2023/07/30 01:18:18;;;;;;;6.55;2.95;;;;;;;;;;6254217;23;20174;-89
2023/07/30 01:21:25;;;;;;;4.95;2.80;;;;;;;;;;6237467;22;20209;-90
2023/07/30 01:24:30;;;;;;;10.05;3.35;;;;;;;;;;6258339;22;20194;-90
2023/07/30 01:27:38;;;;;;;8.18;3.00;;;;;;;;;;6256323;22;20177;-89
2023/07/30 01:30:43;;;;;;;5.50;3.05;;;;;;;;;;6236715;23;20182;-89
2023/07/30 01:33:50;;;;;;;6.28;3.22;;;;;;;;;;6236106;22;20194;-89
2023/07/30 01:36:57;;;;;;;8.60;3.05;;;;;;;;;;6234964;23;20264;-89
2023/07/30 01:40:03;;;;;;;18.30;3.08;;;;;;;;;;6237855;23;20166;-88
2023/07/30 01:43:09;;;;;;;5.90;3.10;;;;;;;;;;6255466;23;20166;-89
2023/07/30 01:46:13;;;;;;;9.70;3.30;;;;;;;;;;6254744;22;20170;-87
2023/07/30 01:49:18;;;;;;;7.18;3.28;;;;;;;;;;6253082;23;20513;-89
2023/07/30 01:52:25;;;;;;;7.13;3.03;;;;;;;;;;6254799;22;20165;-89
2023/07/30 01:55:29;;;;;;;13.48;3.45;;;;;;;;;;6237703;23;20185;-89
2023/07/30 02:02:25;;;;;;;7.60;3.15;;;;;;;;;;6256766;22;20147;-90
2023/07/30 02:05:30;;;;;;;6.70;2.72;;;;;;;;;;6253654;22;20530;-90
2023/07/30 02:08:37;;;;;;;9.00;2.90;;;;;;;;;;6253765;22;20151;-89
2023/07/30 02:11:44;;;;;;;9.77;3.15;;;;;;;;;;6253296;22;20170;-89
2023/07/30 02:14:48;;;;;;;5.45;2.42;;;;;;;;;;6251831;23;20213;-89
2023/07/30 02:17:54;;;;;;;10.02;3.28;;;;;;;;;;6234904;23;20150;-88
2023/07/30 02:20:59;;;;;;;6.03;2.90;;;;;;;;;;6252096;22;20166;-90
2023/07/30 02:24:11;;;;;;;0.93;0.70;;;;;;;;;;6254519;23;20250;-90
2023/07/30 02:27:16;;;;;;;0.77;0.73;;;;;;;;;;6253954;22;20281;-89
2023/07/30 02:30:21;;;;;;;0.32;0.32;;;;;;;;;;6252577;23;20166;-89
2023/07/30 02:33:27;;;;;;;0.68;0.68;;;;;;;;;;6253915;22;20290;-90
2023/07/30 02:36:32;;;;;;;0.43;0.43;;;;;;;;;;6236245;22;20292;-90
2023/07/30 02:39:39;;;;;;;26.80;1.98;;;;;;;;;;6253838;22;20178;-90
2023/07/30 02:42:43;;;;;;;1.05;0.80;;;;;;;;;;6254389;23;20162;-90
2023/07/30 02:45:49;;;;;;;0.30;0.30;;;;;;;;;;6252764;22;20166;-90
2023/07/30 02:48:54;;;;;;;0.50;0.50;;;;;;;;;;6235889;22;20169;-89
2023/07/30 02:51:59;;;;;;;0.60;0.50;;;;;;;;;;6254645;22;20231;-91
2023/07/30 02:55:06;;;;;;;1.00;0.93;;;;;;;;;;6253745;22;20658;-90
2023/07/30 02:58:11;;;;;;;0.55;0.55;;;;;;;;;;6254228;22;20163;-90
2023/07/30 03:01:16;;;;;;;1.13;0.73;;;;;;;;;;6253381;22;20170;-89
2023/07/30 03:04:21;;;;;;;0.63;0.63;;;;;;;;;;6254520;22;20171;-90
2023/07/30 03:07:27;;;;;;;0.60;0.60;;;;;;;;;;6235965;23;20162;-90
2023/07/30 03:10:34;;;;;;;0.60;0.60;;;;;;;;;;6253297;22;20182;-90
2023/07/30 03:13:38;;;;;;;0.85;0.50;;;;;;;;;;6254367;22;20210;-90
2023/07/30 03:16:44;;;;;;;7.68;1.90;;;;;;;;;;6237495;22;20154;-89
2023/07/30 03:19:48;;;;;;;0.63;0.43;;;;;;;;;;6236340;22;20171;-89
2023/07/30 03:22:54;;;;;;;0.73;0.73;;;;;;;;;;6254547;23;20174;-89
2023/07/30 03:26:01;;;;;;;0.73;0.73;;;;;;;;;;6239874;23;20190;-89
2023/07/30 03:29:06;;;;;;;0.63;0.63;;;;;;;;;;6255526;22;20166;-90
2023/07/30 03:32:11;;;;;;;0.73;0.65;;;;;;;;;;6256654;23;20261;-88
2023/07/30 03:35:16;;;;;;;1.00;0.93;;;;;;;;;;6255571;22;20222;-90
2023/07/30 03:38:22;;;;;;;0.77;0.77;;;;;;;;;;6257076;23;20158;-89
2023/07/30 03:41:28;;;;;;;1.08;1.05;;;;;;;;;;6255122;22;20167;-90
2023/07/30 03:44:34;;;;;;;2.15;1.27;;;;;;;;;;6255828;22;20162;-89
2023/07/30 03:47:39;;;;;;;0.45;0.45;;;;;;;;;;6255022;23;20171;-89
2023/07/30 03:50:44;;;;;;;0.40;0.40;;;;;;;;;;6254881;22;20177;-89
2023/07/30 03:53:49;;;;;;;0.47;0.47;;;;;;;;;;6256400;22;20175;-91
2023/07/30 03:56:56;;;;;;;0.75;0.75;;;;;;;;;;6255158;22;20506;-89
2023/07/30 04:00:03;;;;;;;0.40;0.40;;;;;;;;;;6254306;23;20664;-92
2023/07/30 04:03:08;;;;;;;0.38;0.38;;;;;;;;;;6256222;22;20189;-90
2023/07/30 04:06:13;;;;;;;1.38;1.00;;;;;;;;;;6256869;22;20170;-88
2023/07/30 04:09:19;;;;;;;0.30;0.30;;;;;;;;;;6256945;22;20167;-89
2023/07/30 04:12:25;;;;;;;0.70;0.50;;;;;;;;;;6238685;23;20170;-89
2023/07/30 04:15:31;;;;;;;1.95;1.15;;;;;;;;;;6254332;22;20205;-89
2023/07/30 04:18:36;;;;;;;0.60;0.60;;;;;;;;;;6254846;22;20158;-89
2023/07/30 04:21:41;;;;;;;0.47;0.47;;;;;;;;;;6253875;23;20170;-90
2023/07/30 04:24:46;;;;;;;0.50;0.50;;;;;;;;;;6253774;23;20235;-89
2023/07/30 04:27:53;;;;;;;0.47;0.47;;;;;;;;;;6253138;23;20289;-89
2023/07/30 04:30:58;;;;;;;0.40;0.40;;;;;;;;;;6252644;23;20540;-89
2023/07/30 04:34:03;;;;;;;0.50;0.50;;;;;;;;;;6253658;23;20213;-90
2023/07/30 04:37:18;;;;;;;0.73;0.65;;;;;;;;;;6252801;23;20198;-89
2023/07/30 04:40:23;;;;;;;0.30;0.30;;;;;;;;;;6254309;23;20238;-88
2023/07/30 04:43:30;;;;;;;1.15;0.88;;;;;;;;;;6254509;23;20171;-90
2023/07/30 04:46:36;;;;;;;0.52;0.52;;;;;;;;;;6255239;23;20245;-90
2023/07/30 04:49:41;;;;;;;0.52;0.47;;;;;;;;;;6256833;23;20166;-89
2023/07/30 04:52:47;;;;;;;0.40;0.40;;;;;;;;;;6237326;23;20229;-90
2023/07/30 04:55:56;;;;;;;0.70;0.52;;;;;;;;;;6236838;23;20190;-89
2023/07/30 04:59:38;;;;;;;0.50;0.50;;;;;;;;;;6255131;23;20613;-87
2023/07/30 05:02:44;;;;;;;0.82;0.82;;;;;;;;;;6256022;23;20624;-91
2023/07/30 05:05:50;;;;;;;1.15;0.90;;;;;;;;;;6255867;23;20667;-88
2023/07/30 05:08:55;;;;;;;0.77;0.77;;;;;;;;;;6237612;23;20186;-89
2023/07/30 05:12:00;;;;;;;0.60;0.60;;;;;;;;;;6253800;23;20175;-88
2023/07/30 05:15:06;;;;;;;0.40;0.40;;;;;;;;;;6253177;23;20190;-90
2023/07/30 05:18:13;;;;;;;13.40;1.38;;;;;;;;;;6253941;23;20170;-90
2023/07/30 05:21:18;;;;;;;1.05;0.95;;;;;;;;;;6253877;23;20238;-88
2023/07/30 05:24:24;;;;;;;0.65;0.65;;;;;;;;;;6254765;23;20668;-89
2023/07/30 05:27:31;;;;;;;0.50;0.50;;;;;;;;;;6253977;23;20174;-89
2023/07/30 05:30:36;;;;;;;1.08;1.00;;;;;;;;;;6255309;23;20151;-90
2023/07/30 05:33:42;;;;;;;0.20;0.20;;;;;;;;;;6237083;23;20200;-89
2023/07/30 05:36:53;;;;;;;0.20;0.20;;;;;;;;;;6235196;23;20194;-89
2023/07/30 05:39:57;;;;;;;0.30;0.30;;;;;;;;;;6254732;23;20189;-89
2023/07/30 05:43:02;;;;;;;0.52;0.52;;;;;;;;;;6253986;23;20166;-91
2023/07/30 05:46:08;;;;;;;0.50;0.50;;;;;;;;;;6254619;23;20166;-89
2023/07/30 05:49:14;;;;;;;0.20;0.20;;;;;;;;;;6239249;23;20171;-89
2023/07/30 05:52:19;;;;;;;0.25;0.25;;;;;;;;;;6257832;23;20179;-90
2023/07/30 05:55:24;;;;;;;0.75;0.52;;;;;;;;;;6257224;23;20262;-90
2023/07/30 05:58:29;;;;;;;0.30;0.30;;;;;;;;;;6237532;23;20290;-89
2023/07/30 06:01:34;;;;;;;0.40;0.40;;;;;;;;;;6255736;23;20170;-90
2023/07/30 06:04:40;;;;;;;0.38;0.38;;;;;;;;;;6256467;23;20610;-89
2023/07/30 06:07:45;;;;;;;0.30;0.30;;;;;;;;;;6256238;22;20245;-90
2023/07/30 06:10:50;;;;;;;0.63;0.63;;;;;;;;;;6255237;22;20170;-90
2023/07/30 06:13:55;;;;;;;0.50;0.50;;;;;;;;;;6255115;23;20166;-90
2023/07/30 06:16:59;;;;;;;0.20;0.20;;;;;;;;;;6254976;23;20161;-90
2023/07/30 06:20:06;;;;;;;2.05;0.63;;;;;;;;;;6257227;22;20286;-90
2023/07/30 06:23:11;;;;;;;0.30;0.30;;;;;;;;;;6256400;23;20174;-90
2023/07/30 06:26:17;;;;;;;11.77;0.88;;;;;;;;;;6254356;23;20261;-88
2023/07/30 06:29:22;;;;;;;0.30;0.30;;;;;;;;;;6251967;23;20171;-89
2023/07/30 06:32:27;;;;;;;0.63;0.57;;;;;;;;;;6253005;23;20170;-89
2023/07/30 06:35:34;;;;;;;0.10;0.10;;;;;;;;;;6236305;23;20229;-90
2023/07/30 06:38:40;;;;;;;0.40;0.40;;;;;;;;;;6235287;23;20473;-88
2023/07/30 06:41:45;;;;;;;0.45;0.45;;;;;;;;;;6237043;23;20174;-91
2023/07/30 06:44:51;;;;;;;0.60;0.60;;;;;;;;;;6253500;23;20238;-89
2023/07/30 06:47:56;;;;;;;0.30;0.30;;;;;;;;;;6237379;23;20486;-89
2023/07/30 06:51:03;;;;;;;0.73;0.73;;;;;;;;;;6236320;23;20633;-90
2023/07/30 06:54:07;;;;;;;0.28;0.28;;;;;;;;;;6234989;23;20289;-89
2023/07/30 06:57:12;;;;;;;0.30;0.30;;;;;;;;;;6254706;23;20193;-89
2023/07/30 07:00:49;;;;;;;0.30;0.30;;;;;;;;;;6252681;22;20163;-89
2023/07/30 07:03:54;;;;;;;41.75;2.05;;;;;;;;;;6237515;23;20676;-89
2023/07/30 07:07:03;;;;;;;0.40;0.40;;;;;;;;;;6258034;22;20186;-89
2023/07/30 07:10:10;;;;;;;0.45;0.45;;;;;;;;;;6238845;23;20170;-90
2023/07/30 07:13:16;;;;;;;0.30;0.30;;;;;;;;;;6255367;23;20220;-89
2023/07/30 07:16:21;;;;;;;0.20;0.20;;;;;;;;;;6255416;23;20262;-89
2023/07/30 07:19:26;;;;;;;0.20;0.20;;;;;;;;;;6238196;23;20166;-89
2023/07/30 07:22:32;;;;;;;0.50;0.50;;;;;;;;;;6255555;23;20166;-90
2023/07/30 07:25:38;;;;;;;0.30;0.30;;;;;;;;;;6256358;23;20169;-90
2023/07/30 07:28:43;;;;;;;0.40;0.40;;;;;;;;;;6256006;22;20201;-90
2023/07/30 07:31:49;;;;;;;2.50;1.67;;;;;;;;;;6257960;23;20174;-91
2023/07/30 07:34:54;;;;;;;2.15;1.52;;;;;;;;;;6240432;23;20240;-89
2023/07/30 07:38:05;;;;;;;16.70;1.48;;;;;;;;;;6256497;23;20170;-88
2023/07/30 07:41:16;;;;;;;1.20;0.60;;;;;;;;;;6258754;23;20163;-89
2023/07/30 07:44:22;;;;;;;0.80;0.60;;;;;;;;;;6257186;23;20146;-89
2023/07/30 07:47:27;;;;;;;0.70;0.63;;;;;;;;;;6258131;22;20189;-89
2023/07/30 07:50:32;;;;;;;0.30;0.30;;;;;;;;;;6259957;22;20186;-90
2023/07/30 07:53:39;;;;;;;0.30;0.30;;;;;;;;;;6260368;23;20170;-88
2023/07/30 07:56:44;;;;;;;0.20;0.20;;;;;;;;;;6256260;23;20194;-89
2023/07/30 07:59:50;;;;;;;0.30;0.30;;;;;;;;;;6238597;22;20229;-88
2023/07/30 08:02:56;;;;;;;0.35;0.35;;;;;;;;;;6255630;23;20501;-88
2023/07/30 08:06:01;;;;;;;0.65;0.45;;;;;;;;;;6260373;22;20209;-90
2023/07/30 08:09:08;;;;;;;0.40;0.40;;;;;;;;;;6240896;23;20234;-89
2023/07/30 08:12:14;;;;;;;0.47;0.47;;;;;;;;;;6256483;23;20278;-89
2023/07/30 08:15:20;;;;;;;0.50;0.50;;;;;;;;;;6256488;22;20189;-90
2023/07/30 08:18:24;;;;;;;0.73;0.73;;;;;;;;;;6239110;22;20179;-90
2023/07/30 08:21:29;;;;;;;0.30;0.30;;;;;;;;;;6240170;23;20228;-90
2023/07/30 08:24:36;;;;;;;0.20;0.20;;;;;;;;;;6257727;23;20170;-89
2023/07/30 08:27:41;;;;;;;0.47;0.47;;;;;;;;;;6258918;23;20173;-89
2023/07/30 08:30:46;;;;;;;0.32;0.32;;;;;;;;;;6262698;23;20157;-87
2023/07/30 08:33:59;;;;;;;0.50;0.50;;;;;;;;;;6256168;23;20171;-89
2023/07/30 08:37:04;;;;;;;0.45;0.45;;;;;;;;;;6238136;23;20213;-87
2023/07/30 08:40:11;;;;;;;0.38;0.38;;;;;;;;;;6255705;23;20166;-88
2023/07/30 08:43:17;;;;;;;0.38;0.38;;;;;;;;;;6256058;23;20206;-89
2023/07/30 08:46:22;;;;;;;0.63;0.47;;;;;;;;;;6258135;23;20175;-89
2023/07/30 08:49:28;;;;;;;0.40;0.40;;;;;;;;;;6260988;23;20170;-90
2023/07/30 08:52:34;;;;;;;0.30;0.30;;;;;;;;;;6256296;22;20218;-91
2023/07/30 08:55:40;;;;;;;1.02;0.40;;;;;;;;;;6240292;23;20194;-90
2023/07/30 08:58:49;;;;;;;0.40;0.40;;;;;;;;;;6256006;22;20490;-90
2023/07/30 09:01:56;;;;;;;0.57;0.57;;;;;;;;;;6241074;22;20162;-90
2023/07/30 09:05:02;;;;;;;0.70;0.50;;;;;;;;;;6256881;23;20171;-90
2023/07/30 09:08:08;;;;;;;0.20;0.20;;;;;;;;;;6256067;22;20241;-89
2023/07/30 09:11:15;;;;;;;0.30;0.30;;;;;;;;;;6241594;23;20186;-88
2023/07/30 09:14:21;;;;;;;0.38;0.38;;;;;;;;;;6258721;23;20158;-91
2023/07/30 09:17:26;;;;;;;0.20;0.20;;;;;;;;;;6239548;22;20165;-89
2023/07/30 09:20:38;;;;;;;0.40;0.40;;;;;;;;;;6256307;22;20162;-89
2023/07/30 09:23:44;;;;;;;2.85;1.70;;;;;;;;;;6238699;23;20510;-90
2023/07/30 09:26:50;;;;;;;3.28;1.60;;;;;;;;;;6239556;23;20169;-89
2023/07/30 09:29:56;;;;;;;4.43;1.70;;;;;;;;;;6255895;23;20178;-88
2023/07/30 09:33:01;;;;;;;2.33;1.65;;;;;;;;;;6258662;23;20640;-91
2023/07/30 09:36:06;;;;;;;2.63;1.63;;;;;;;;;;6238408;23;20209;-90
2023/07/30 09:39:22;;;;;;;4.32;1.52;;;;;;;;;;6256947;23;20173;-90
2023/07/30 09:42:30;;;;;;;4.43;1.73;;;;;;;;;;6256240;23;20170;-89
2023/07/30 09:45:36;;;;;;;3.70;1.70;;;;;;;;;;6257690;23;20209;-90
2023/07/30 09:48:41;;;;;;;3.35;1.70;;;;;;;;;;6256353;23;20170;-90
2023/07/30 09:51:47;;;;;;;2.15;1.55;;;;;;;;;;6239104;23;20193;-90
2023/07/30 09:54:54;;;;;;;3.10;1.60;;;;;;;;;;6258395;23;20228;-91
2023/07/30 09:58:01;;;;;;;2.00;1.60;;;;;;;;;;6261787;23;20190;-91
2023/07/30 10:01:06;;;;;;;2.47;1.50;;;;;;;;;;6240005;23;20165;-90
2023/07/30 10:04:12;;;;;;;2.38;1.35;;;;;;;;;;6241762;23;20169;-89
2023/07/30 10:07:19;;;;;;;2.30;1.50;;;;;;;;;;6258920;22;20169;-91
2023/07/30 10:10:26;;;;;;;2.65;1.60;;;;;;;;;;6260404;23;20189;-90
2023/07/30 10:13:32;;;;;;;2.80;1.55;;;;;;;;;;6258261;23;20174;-89
2023/07/30 10:16:37;;;;;;;7.20;2.40;;;;;;;;;;6258680;22;20193;-90
2023/07/30 10:19:42;;;;;;;3.33;1.40;;;;;;;;;;6240840;23;20173;-90
2023/07/30 10:22:47;;;;;;;2.47;1.50;;;;;;;;;;6257014;23;20281;-90
2023/07/30 10:25:56;;;;;;;2.05;1.38;;;;;;;;;;6240532;23;20161;-88
2023/07/30 10:29:13;;;;;;;2.25;1.52;;;;;;;;;;6242549;23;20265;-88
2023/07/30 10:32:18;;;;;;;2.80;1.80;;;;;;;;;;6258671;22;20158;-87
2023/07/30 10:35:36;;;;;;;3.05;1.70;;;;;;;;;;6259364;23;20194;-90
2023/07/30 10:38:47;;;;;;;2.95;1.80;;;;;;;;;;6241248;23;20192;-90
2023/07/30 10:41:52;;;;;;;2.70;2.00;;;;;;;;;;6257863;23;20174;-89
2023/07/30 10:44:59;;;;;;;2.67;1.83;;;;;;;;;;6256949;23;20289;-89
2023/07/30 10:48:05;;;;;;;2.50;1.90;;;;;;;;;;6255690;23;20959;-90
2023/07/30 10:51:11;;;;;;;2.67;1.52;;;;;;;;;;6256691;23;20170;-89
2023/07/30 10:54:17;;;;;;;5.13;2.03;;;;;;;;;;6255927;23;20167;-88
2023/07/30 12:04:51;;;;;;;0.28;0.28;;;;;;;;;;6238634;22;20586;-89
2023/07/30 12:07:56;;;;;;;0.30;0.30;;;;;;;;;;6261751;22;20461;-90
2023/07/30 12:11:04;;;;;;;0.20;0.20;;;;;;;;;;6264624;22;20174;-90
2023/07/30 12:14:11;;;;;;;0.32;0.32;;;;;;;;;;6249267;22;20677;-89
2023/07/30 12:17:16;;;;;;;0.20;0.20;;;;;;;;;;6265697;22;20181;-88
2023/07/30 12:20:29;;;;;;;0.30;0.30;;;;;;;;;;6265864;23;20170;-89
2023/07/30 12:23:43;;;;;;;0.30;0.30;;;;;;;;;;6248837;23;20167;-89
2023/07/30 12:26:47;;;;;;;0.57;0.57;;;;;;;;;;6245411;23;20170;-91
2023/07/30 12:29:53;;;;;;;0.20;0.20;;;;;;;;;;6262185;22;20151;-88
2023/07/30 12:32:58;;;;;;;0.40;0.40;;;;;;;;;;6263364;22;20171;-92
2023/07/30 12:36:06;;;;;;;0.47;0.47;;;;;;;;;;6262784;22;20198;-89
2023/07/30 12:39:33;;;;;;;0.28;0.28;;;;;;;;;;6262321;23;20634;-90
2023/07/30 12:42:38;;;;;;;0.40;0.40;;;;;;;;;;6260548;23;20159;-89
2023/07/30 12:45:43;;;;;;;0.30;0.30;;;;;;;;;;6261639;23;20215;-90
2023/07/30 12:48:48;;;;;;;0.50;0.50;;;;;;;;;;6258317;23;20202;-91
2023/07/30 12:51:55;;;;;;;0.35;0.35;;;;;;;;;;6260866;23;20169;-89
2023/07/30 12:55:00;;;;;;;0.73;0.50;;;;;;;;;;6260374;22;20170;-91
2023/07/30 12:58:05;;;;;;;0.45;0.45;;;;;;;;;;6258497;23;20178;-90
2023/07/30 13:01:11;;;;;;;0.47;0.47;;;;;;;;;;6259812;23;20162;-89
2023/07/30 13:04:16;;;;;;;0.55;0.55;;;;;;;;;;6226030;23;20166;-89
2023/07/30 13:07:36;;;;;;;0.28;0.28;;;;;;;;;;6262120;22;20170;-89
2023/07/30 13:10:43;;;;;;;1.40;0.75;;;;;;;;;;6244946;22;20163;-90
2023/07/30 13:13:49;;;;;;;0.30;0.30;;;;;;;;;;6260610;23;20173;-92
2023/07/30 13:16:54;;;;;;;0.40;0.40;;;;;;;;;;6259324;23;20287;-91
2023/07/30 13:19:59;;;;;;;0.25;0.25;;;;;;;;;;6262840;22;20254;-90
2023/07/30 13:23:06;;;;;;;0.28;0.28;;;;;;;;;;6261826;23;20170;-90
2023/07/30 13:26:11;;;;;;;0.20;0.20;;;;;;;;;;6259468;23;20182;-87
2023/07/30 13:29:16;;;;;;;0.20;0.20;;;;;;;;;;6261290;23;20241;-90
2023/07/30 13:32:21;;;;;;;0.30;0.30;;;;;;;;;;6248466;23;20234;-91
2023/07/30 13:35:29;;;;;;;0.52;0.52;;;;;;;;;;6258908;22;20169;-90
2023/07/30 13:38:39;;;;;;;0.20;0.20;;;;;;;;;;6240033;23;20216;-88
2023/07/30 13:41:44;;;;;;;0.30;0.30;;;;;;;;;;6259597;22;20230;-91
2023/07/30 13:44:50;;;;;;;0.40;0.40;;;;;;;;;;6241843;22;20233;-89
2023/07/30 13:47:56;;;;;;;0.80;0.80;;;;;;;;;;6244146;23;20223;-89
2023/07/30 13:51:01;;;;;;;0.73;0.73;;;;;;;;;;6242375;23;20217;-90
2023/07/30 13:54:08;;;;;;;0.90;0.50;;;;;;;;;;6240896;23;20488;-89
2023/07/30 13:57:15;;;;;;;0.35;0.35;;;;;;;;;;6244682;22;20182;-89
2023/07/30 14:00:38;;;;;;;0.77;0.70;;;;;;;;;;6261175;23;20166;-89
2023/07/30 14:03:45;;;;;;;0.90;0.82;;;;;;;;;;6261639;23;20222;-91
2023/07/30 14:06:51;;;;;;;0.30;0.30;;;;;;;;;;6264024;22;20178;-88
2023/07/30 14:09:58;;;;;;;0.73;0.55;;;;;;;;;;6243278;23;20182;-88
2023/07/30 14:13:08;;;;;;;3.03;2.40;;;;;;;;;;6260573;22;20255;-90
2023/07/30 14:16:13;;;;;;;5.40;2.53;;;;;;;;;;6259999;23;20194;-88
2023/07/30 14:19:18;;;;;;;2.63;2.00;;;;;;;;;;6261325;22;20167;-89
2023/07/30 14:22:27;;;;;;;4.05;2.00;;;;;;;;;;6241421;23;20206;-89
2023/07/30 14:25:34;;;;;;;2.83;2.00;;;;;;;;;;6242162;22;20194;-88
2023/07/30 14:28:42;;;;;;;2.00;1.70;;;;;;;;;;6260608;22;20250;-89
2023/07/30 14:35:08;;;;;;;3.65;1.77;;;;;;;;;;6241384;23;20231;-89
2023/07/30 14:38:16;;;;;;;3.97;1.75;;;;;;;;;;6259967;22;20189;-89
2023/07/30 14:41:22;;;;;;;2.10;1.58;;;;;;;;;;6258982;23;20166;-89
2023/07/30 14:44:27;;;;;;;3.25;1.48;;;;;;;;;;6257504;23;20170;-88
2023/07/30 16:41:32;;;;;;;1.70;1.20;;;;;;;;;;6233127;23;20155;-92
2023/07/30 16:44:38;;;;;;;6.53;1.67;;;;;;;;;;6215800;23;20207;-91
2023/07/30 16:47:43;;;;;;;3.85;1.50;;;;;;;;;;6215775;23;20204;-93
2023/07/30 16:50:49;;;;;;;2.63;1.38;;;;;;;;;;6216330;23;20171;-91
2023/07/30 16:53:55;;;;;;;1.65;1.17;;;;;;;;;;6216621;23;20266;-91
2023/07/30 16:57:02;;;;;;;2.42;1.45;;;;;;;;;;6217039;23;20166;-91
2023/07/30 17:00:26;;;;;;;5.95;1.85;;;;;;;;;;6215703;23;20246;-92
2023/07/30 17:03:34;;;;;;;2.92;1.95;;;;;;;;;;6217199;23;20542;-91
2023/07/30 17:06:40;;;;;;;2.78;1.75;;;;;;;;;;6213851;23;20190;-93
2023/07/30 17:09:45;;;;;;;3.65;1.60;;;;;;;;;;6212462;23;20151;-91
2023/07/30 17:12:52;;;;;;;3.30;1.50;;;;;;;;;;6212943;23;20635;-92
2023/07/30 17:15:58;;;;;;;4.75;1.73;;;;;;;;;;6212331;23;20166;-91
2023/07/30 17:19:05;;;;;;;3.38;1.70;;;;;;;;;;6213909;23;20167;-92
2023/07/30 17:22:14;;;;;;;1.98;1.48;;;;;;;;;;6216138;23;20560;-90
2023/07/30 17:25:19;;;;;;;2.40;1.52;;;;;;;;;;6213426;23;20224;-88
2023/07/30 17:28:31;;;;;;;2.42;1.52;;;;;;;;;;6213666;23;20167;-95
2023/07/30 17:31:42;;;;;;;2.17;1.50;;;;;;;;;;6207739;23;20171;-86
2023/07/30 17:34:47;;;;;;;3.47;1.48;;;;;;;;;;6209138;23;20170;-89
2023/07/30 17:37:52;;;;;;;2.50;1.48;;;;;;;;;;6207251;23;20187;-88
2023/07/30 17:40:58;;;;;;;2.72;1.60;;;;;;;;;;6209270;23;20469;-89
2023/07/30 17:44:05;;;;;;;1.98;1.65;;;;;;;;;;6206272;23;20249;-88
2023/07/30 17:47:10;;;;;;;1.80;1.45;;;;;;;;;;6208947;23;20230;-88
2023/07/30 17:50:17;;;;;;;5.65;2.63;;;;;;;;;;6210189;23;20167;-88
2023/07/30 17:53:22;;;;;;;2.85;1.92;;;;;;;;;;6209582;23;20167;-89
2023/07/30 17:56:27;;;;;;;2.88;1.67;;;;;;;;;;6207931;23;20211;-89
2023/07/30 17:59:36;;;;;;;4.32;1.80;;;;;;;;;;6204878;23;20178;-88
2023/07/30 18:02:41;;;;;;;5.05;2.08;;;;;;;;;;6209162;23;20192;-89
2023/07/30 18:05:47;;;;;;;2.80;1.70;;;;;;;;;;6229217;23;20179;-89
2023/07/30 18:08:52;;;;;;;2.40;1.60;;;;;;;;;;6210222;23;20170;-88
2023/07/30 18:11:57;;;;;;;9.07;1.80;;;;;;;;;;6211239;23;20171;-88
2023/07/30 18:15:04;;;;;;;4.47;1.60;;;;;;;;;;6210946;23;20167;-89
2023/07/30 18:18:09;;;;;;;3.35;1.95;;;;;;;;;;6209358;23;20469;-89
2023/07/30 18:21:14;;;;;;;18.23;7.93;;;;;;;;;;6210420;23;20171;-89
2023/07/30 18:24:19;;;;;;;3.72;2.08;;;;;;;;;;6209202;23;20168;-88
2023/07/30 18:27:24;;;;;;;4.55;2.33;;;;;;;;;;6208791;23;20197;-89
2023/07/30 18:30:31;;;;;;;12.60;2.30;;;;;;;;;;6209053;23;20171;-87
2023/07/30 18:33:36;;;;;;;6.30;2.20;;;;;;;;;;6210056;23;20186;-90
2023/07/30 18:36:43;;;;;;;3.92;1.95;;;;;;;;;;6200462;23;20187;-89
2023/07/30 18:39:48;;;;;;;21.88;7.53;;;;;;;;;;6195775;23;20301;-89
2023/07/30 18:42:53;;;;;;;8.35;3.28;;;;;;;;;;6197010;23;20163;-90
2023/07/30 18:46:05;;;;;;;5.60;2.63;;;;;;;;;;6198122;23;20163;-89
2023/07/30 18:49:10;;;;;;;5.50;1.90;;;;;;;;;;6199428;23;20167;-90
2023/07/30 18:52:15;;;;;;;10.45;2.45;;;;;;;;;;6198421;23;20176;-89
2023/07/30 18:55:31;;;;;;;3.95;1.77;;;;;;;;;;6203190;23;20168;-90
2023/07/30 18:58:38;;;;;;;5.05;2.03;;;;;;;;;;6203186;23;20220;-91
2023/07/30 19:01:45;;;;;;;5.78;2.13;;;;;;;;;;6203186;23;20163;-89
2023/07/30 19:04:51;;;;;;;3.63;1.95;;;;;;;;;;6198232;23;20163;-89
2023/07/30 19:08:02;;;;;;;5.35;2.30;;;;;;;;;;6199855;23;20199;-88
2023/07/30 19:11:08;;;;;;;6.00;2.50;;;;;;;;;;6202471;23;20233;-89
2023/07/30 19:14:19;;;;;;;6.10;2.25;;;;;;;;;;6201462;23;20252;-89
2023/07/30 19:17:31;;;;;;;5.20;2.30;;;;;;;;;;6201219;23;20172;-91
2023/07/30 19:20:36;;;;;;;4.28;2.22;;;;;;;;;;6201468;23;20171;-89
2023/07/30 19:23:43;;;;;;;6.53;2.25;;;;;;;;;;6203980;23;20179;-89
2023/07/30 19:26:51;;;;;;;9.63;2.35;;;;;;;;;;6185116;23;20198;-88
2023/07/30 19:29:57;;;;;;;4.80;2.40;;;;;;;;;;6204810;23;20172;-90
2023/07/30 19:33:04;;;;;;;8.57;3.20;;;;;;;;;;6204658;23;20172;-89
2023/07/30 19:36:10;;;;;;;7.10;2.47;;;;;;;;;;6217433;23;20195;-91
2023/07/30 19:39:18;;;;;;;5.82;2.50;;;;;;;;;;6217282;23;20166;-90
2023/07/30 19:42:24;;;;;;;5.05;2.40;;;;;;;;;;6216554;23;20175;-92
2023/07/30 19:45:29;;;;;;;5.97;2.10;;;;;;;;;;6218110;23;20155;-92
2023/07/30 19:48:41;;;;;;;4.25;1.85;;;;;;;;;;6214877;23;20238;-91
2023/07/30 19:51:46;;;;;;;3.83;2.15;;;;;;;;;;6217289;23;20163;-89
2023/07/30 19:54:53;;;;;;;10.18;2.90;;;;;;;;;;6217215;23;20167;-89
2023/07/30 19:57:59;;;;;;;4.43;2.17;;;;;;;;;;6216131;23;20224;-90
2023/07/30 20:01:05;;;;;;;4.30;2.10;;;;;;;;;;6215427;23;20171;-92
2023/07/30 20:04:12;;;;;;;6.07;2.38;;;;;;;;;;6216957;23;20171;-92
2023/07/30 20:07:18;;;;;;;5.80;2.40;;;;;;;;;;6221341;23;20195;-87
2023/07/30 20:10:26;;;;;;;4.53;2.40;;;;;;;;;;6218743;23;20175;-90
2023/07/30 20:13:33;;;;;;;5.88;2.25;;;;;;;;;;6220885;23;20180;-90
2023/07/30 20:20:01;;;;;;;5.40;2.13;;;;;;;;;;6217620;23;20242;-90
2023/07/30 20:23:09;;;;;;;9.68;2.42;;;;;;;;;;6217046;23;20170;-89
2023/07/30 20:26:14;;;;;;;6.53;2.40;;;;;;;;;;6220306;23;20234;-91
2023/07/30 20:29:20;;;;;;;6.40;2.90;;;;;;;;;;6217585;23;20167;-90
2023/07/30 20:32:41;;;;;;;5.90;2.45;;;;;;;;;;6212603;23;20171;-89
